createdAt,value
2022-08-26T00:00:49.058Z,3.03
2022-08-26T00:03:33.205Z,3.15
2022-08-26T00:06:16.158Z,2.92
2022-08-26T00:09:05.394Z,3.20
2022-08-26T00:11:52.003Z,3.00
2022-08-26T00:14:35.120Z,3.35
2022-08-26T00:17:19.369Z,3.03
2022-08-26T00:20:02.689Z,2.95
2022-08-26T00:22:46.141Z,2.90
2022-08-26T00:25:30.061Z,3.30
2022-08-26T00:28:13.286Z,3.20
2022-08-26T00:30:56.930Z,3.00
2022-08-26T00:33:41.506Z,3.08
2022-08-26T00:36:24.924Z,3.00
2022-08-26T00:39:12.759Z,2.90
2022-08-26T00:41:55.888Z,3.28
2022-08-26T00:44:39.535Z,3.05
2022-08-26T00:47:25.290Z,3.25
2022-08-26T00:50:17.331Z,3.10
2022-08-26T00:53:01.400Z,3.13
2022-08-26T00:55:44.233Z,2.95
2022-08-26T00:58:29.456Z,3.10
2022-08-26T01:01:12.722Z,2.83
2022-08-26T01:03:56.624Z,3.33
2022-08-26T01:06:41.178Z,3.10
2022-08-26T01:09:27.437Z,3.42
2022-08-26T01:12:10.314Z,3.10
2022-08-26T01:14:53.735Z,2.90
2022-08-26T01:17:38.421Z,2.88
2022-08-26T01:20:26.618Z,2.95
2022-08-26T01:23:11.870Z,3.03
2022-08-26T01:25:57.084Z,2.67
2022-08-26T01:28:40.715Z,3.28
2022-08-26T01:31:24.959Z,2.97
2022-08-26T01:34:11.092Z,3.22
2022-08-26T01:36:55.617Z,2.97
2022-08-26T01:39:41.328Z,2.97
2022-08-26T01:42:25.919Z,2.90
2022-08-26T01:45:12.160Z,3.03
2022-08-26T01:47:58.097Z,3.22
2022-08-26T01:50:41.273Z,3.17
2022-08-26T01:53:26.217Z,2.80
2022-08-26T01:56:11.187Z,3.03
2022-08-26T01:58:56.345Z,3.17
2022-08-26T02:01:39.331Z,3.20
2022-08-26T02:04:24.694Z,2.90
2022-08-26T02:07:09.388Z,3.10
2022-08-26T02:09:52.128Z,3.20
2022-08-26T02:12:36.389Z,3.25
2022-08-26T02:15:19.194Z,3.08
2022-08-26T02:18:04.625Z,3.42
2022-08-26T02:20:47.405Z,3.85
2022-08-26T02:23:34.608Z,2.83
2022-08-26T02:26:19.508Z,3.15
2022-08-26T02:29:07.575Z,3.30
2022-08-26T02:31:50.658Z,3.25
2022-08-26T02:34:34.983Z,3.05
2022-08-26T02:37:17.904Z,2.97
2022-08-26T02:40:03.533Z,3.47
2022-08-26T02:42:46.494Z,3.10
2022-08-26T02:45:30.966Z,2.90
2022-08-26T02:48:15.190Z,3.05
2022-08-26T02:50:59.799Z,2.83
2022-08-26T02:53:42.600Z,2.70
2022-08-26T02:56:25.613Z,3.15
2022-08-26T02:59:08.540Z,2.78
2022-08-26T03:01:56.102Z,2.97
2022-08-26T03:04:39.116Z,3.05
2022-08-26T03:07:22.110Z,2.83
2022-08-26T03:10:06.914Z,2.83
2022-08-26T03:13:00.100Z,3.00
2022-08-26T03:15:49.446Z,2.90
2022-08-26T03:18:34.465Z,2.67
2022-08-26T03:21:19.852Z,3.03
2022-08-26T03:24:02.867Z,3.00
2022-08-26T03:26:52.628Z,3.17
2022-08-26T03:29:54.608Z,3.10
2022-08-26T03:32:38.564Z,3.20
2022-08-26T03:35:25.797Z,3.40
2022-08-26T03:38:09.342Z,3.40
2022-08-26T03:40:52.925Z,3.20
2022-08-26T03:43:35.745Z,3.80
2022-08-26T03:46:20.655Z,3.70
2022-08-26T03:49:05.330Z,3.22
2022-08-26T03:51:49.490Z,3.40
2022-08-26T03:54:32.913Z,3.22
2022-08-26T03:57:16.779Z,3.30
2022-08-26T03:59:59.703Z,3.50
2022-08-26T04:02:44.098Z,3.33
2022-08-26T04:05:27.744Z,3.38
2022-08-26T04:08:12.557Z,3.22
2022-08-26T04:10:55.322Z,3.00
2022-08-26T04:13:38.265Z,3.42
2022-08-26T04:16:21.079Z,3.00
2022-08-26T04:19:04.357Z,3.22
2022-08-26T04:21:48.362Z,3.65
2022-08-26T04:24:33.013Z,3.20
2022-08-26T04:27:16.074Z,3.60
2022-08-26T04:29:59.566Z,3.60
2022-08-26T04:32:42.326Z,3.30
2022-08-26T04:35:26.224Z,3.53
2022-08-26T04:38:09.177Z,3.42
2022-08-26T04:40:53.316Z,3.55
2022-08-26T04:43:37.358Z,3.60
2022-08-26T04:46:22.688Z,3.65
2022-08-26T04:49:06.171Z,3.53
2022-08-26T04:51:49.365Z,3.60
2022-08-26T04:54:32.229Z,3.40
2022-08-26T04:57:16.764Z,3.45
2022-08-26T04:59:59.595Z,3.40
2022-08-26T05:02:42.415Z,3.75
2022-08-26T05:05:25.627Z,3.78
2022-08-26T05:08:11.351Z,3.55
2022-08-26T05:10:56.343Z,3.47
2022-08-26T05:13:41.467Z,3.50
2022-08-26T05:16:24.419Z,3.90
2022-08-26T05:19:09.755Z,4.13
2022-08-26T05:21:54.819Z,4.10
2022-08-26T05:24:38.039Z,3.95
2022-08-26T05:27:22.284Z,4.03
2022-08-26T05:30:07.458Z,4.20
2022-08-26T05:32:54.809Z,4.07
2022-08-26T05:35:39.240Z,3.85
2022-08-26T05:38:25.653Z,3.97
2022-08-26T05:41:15.938Z,4.00
2022-08-26T05:44:01.430Z,3.78
2022-08-26T05:46:46.290Z,4.53
2022-08-26T05:49:30.540Z,3.90
2022-08-26T05:52:15.737Z,4.00
2022-08-26T05:55:01.190Z,4.32
2022-08-26T05:57:44.233Z,4.40
2022-08-26T06:00:27.583Z,3.95
2022-08-26T06:03:11.857Z,4.07
2022-08-26T06:05:55.012Z,3.85
2022-08-26T06:08:38.547Z,4.60
2022-08-26T06:11:25.372Z,4.38
2022-08-26T06:14:09.111Z,4.03
2022-08-26T06:16:52.417Z,3.97
2022-08-26T06:19:36.791Z,4.32
2022-08-26T06:22:38.024Z,4.20
2022-08-26T06:25:38.148Z,4.10
2022-08-26T06:28:21.998Z,4.15
2022-08-26T06:31:07.406Z,3.83
2022-08-26T06:33:51.409Z,4.13
2022-08-26T06:36:36.076Z,4.32
2022-08-26T06:39:20.915Z,3.80
2022-08-26T06:42:06.100Z,4.35
2022-08-26T06:44:49.956Z,3.38
2022-08-26T06:47:32.938Z,2.72
2022-08-26T06:50:17.113Z,2.58
2022-08-26T06:53:02.556Z,1.17
2022-08-26T06:55:47.197Z,1.08
2022-08-26T06:58:35.514Z,1.20
2022-08-26T07:01:20.129Z,0.60
2022-08-26T07:04:07.864Z,0.52
2022-08-26T07:06:55.387Z,0.47
2022-08-26T07:09:40.766Z,0.40
2022-08-26T07:12:24.865Z,0.40
2022-08-26T07:15:08.623Z,0.30
2022-08-26T07:17:51.695Z,0.20
2022-08-26T07:20:37.461Z,0.35
2022-08-26T07:23:20.604Z,0.30
2022-08-26T07:26:11.283Z,0.30
2022-08-26T07:28:55.770Z,0.30
2022-08-26T07:31:42.193Z,0.20
2022-08-26T07:34:25.399Z,0.22
2022-08-26T07:37:09.312Z,0.30
2022-08-26T07:39:52.481Z,0.15
2022-08-26T07:42:36.687Z,0.20
2022-08-26T07:45:19.503Z,0.20
2022-08-26T07:48:04.019Z,0.30
2022-08-26T07:50:49.115Z,0.30
2022-08-26T07:53:35.414Z,4.15
2022-08-26T07:56:18.657Z,3.97
2022-08-26T07:59:03.013Z,3.78
2022-08-26T08:02:01.474Z,4.22
2022-08-26T08:04:44.351Z,1.77
2022-08-26T08:07:38.544Z,0.90
2022-08-26T08:10:33.173Z,0.40
2022-08-26T08:13:16.132Z,0.20
2022-08-26T08:16:00.668Z,0.20
2022-08-26T08:18:43.799Z,0.25
2022-08-26T08:21:28.908Z,0.20
2022-08-26T08:24:12.596Z,0.20
2022-08-26T08:26:56.642Z,0.20
2022-08-26T08:29:44.073Z,0.15
2022-08-26T08:32:31.189Z,0.20
2022-08-26T08:35:15.062Z,0.20
2022-08-26T08:37:58.462Z,0.20
2022-08-26T08:40:42.415Z,0.25
2022-08-26T08:43:32.093Z,0.17
2022-08-26T08:46:21.790Z,0.20
2022-08-26T08:49:07.334Z,0.20
2022-08-26T08:51:52.826Z,0.20
2022-08-26T08:54:35.837Z,0.20
2022-08-26T08:57:26.237Z,0.30
2022-08-26T09:00:12.607Z,0.20
2022-08-26T09:02:58.903Z,0.10
2022-08-26T09:05:48.698Z,0.30
2022-08-26T09:08:35.221Z,0.20
2022-08-26T09:11:18.851Z,0.10
2022-08-26T09:14:01.790Z,0.20
2022-08-26T09:16:49.206Z,0.10
2022-08-26T09:19:37.125Z,0.20
2022-08-26T09:22:31.641Z,0.20
2022-08-26T09:25:15.882Z,0.25
2022-08-26T09:27:58.891Z,0.15
2022-08-26T09:30:42.123Z,0.20
2022-08-26T09:33:28.507Z,0.20
2022-08-26T09:36:15.911Z,0.15
2022-08-26T09:39:00.494Z,0.20
2022-08-26T09:41:43.649Z,0.20
2022-08-26T09:44:26.658Z,0.25
2022-08-26T09:47:11.350Z,0.20
2022-08-26T09:50:04.362Z,0.30
2022-08-26T09:53:04.688Z,0.20
2022-08-26T09:56:11.336Z,0.30
2022-08-26T09:58:54.427Z,0.20
2022-08-26T10:01:41.856Z,0.20
2022-08-26T10:04:26.711Z,0.20
2022-08-26T10:07:10.594Z,0.20
2022-08-26T10:09:56.096Z,0.10
2022-08-26T10:12:44.009Z,0.25
2022-08-26T10:15:28.528Z,0.20
2022-08-26T10:18:14.170Z,0.20
2022-08-26T10:20:59.841Z,0.20
2022-08-26T10:23:45.118Z,0.22
2022-08-26T10:26:31.516Z,0.20
2022-08-26T10:29:19.859Z,0.30
2022-08-26T10:32:05.956Z,0.20
2022-08-26T10:34:48.865Z,0.10
2022-08-26T10:37:37.523Z,0.20
2022-08-26T10:40:24.209Z,0.20
2022-08-26T10:43:11.429Z,0.20
2022-08-26T10:45:58.190Z,0.20
2022-08-26T10:48:44.874Z,0.10
2022-08-26T10:51:29.714Z,0.20
2022-08-26T10:54:16.229Z,0.10
2022-08-26T10:57:03.451Z,0.20
2022-08-26T10:59:52.646Z,0.17
2022-08-26T11:02:40.857Z,0.10
2022-08-26T11:05:30.360Z,0.10
2022-08-26T11:08:31.618Z,0.20
2022-08-26T11:11:35.278Z,0.10
2022-08-26T11:14:42.098Z,0.20
2022-08-26T11:17:57.549Z,0.20
2022-08-26T11:20:44.875Z,0.20
2022-08-26T11:23:40.292Z,0.20
2022-08-26T11:26:55.289Z,0.20
2022-08-26T11:30:00.497Z,0.20
2022-08-26T11:32:48.803Z,0.20
2022-08-26T11:35:48.481Z,0.20
2022-08-26T11:38:32.126Z,0.10
2022-08-26T11:41:19.862Z,0.10
2022-08-26T11:44:07.144Z,0.20
2022-08-26T11:46:55.880Z,0.20
2022-08-26T11:49:39.224Z,0.20
2022-08-26T11:52:25.431Z,0.10
2022-08-26T11:55:10.210Z,0.10
2022-08-26T11:57:54.323Z,0.10
2022-08-26T12:00:48.733Z,0.10
2022-08-26T12:03:38.940Z,0.10
2022-08-26T12:09:12.658Z,0.10
2022-08-26T12:12:10.510Z,0.10
2022-08-26T12:15:08.383Z,0.20
2022-08-26T12:17:54.333Z,0.10
2022-08-26T12:20:51.317Z,0.10
2022-08-26T12:23:40.907Z,0.10
2022-08-26T12:26:26.239Z,0.20
2022-08-26T12:29:19.994Z,0.20
2022-08-26T12:32:11.356Z,0.10
2022-08-26T12:34:55.388Z,0.10
2022-08-26T12:37:41.107Z,0.20
2022-08-26T12:40:30.024Z,0.10
2022-08-26T12:43:15.698Z,0.10
2022-08-26T12:45:59.960Z,0.10
2022-08-26T12:48:45.887Z,0.10
2022-08-26T12:51:29.616Z,0.20
2022-08-26T12:54:16.098Z,0.10
2022-08-26T12:56:59.148Z,0.20
2022-08-26T12:59:42.026Z,0.20
2022-08-26T13:02:37.768Z,0.10
2022-08-26T13:05:21.695Z,0.10
2022-08-26T13:08:14.474Z,0.10
2022-08-26T13:11:08.056Z,0.10
2022-08-26T13:13:53.526Z,0.10
2022-08-26T13:16:37.382Z,0.20
2022-08-26T13:19:21.920Z,0.10
2022-08-26T13:22:06.263Z,0.20
2022-08-26T13:24:49.354Z,0.20
2022-08-26T13:27:33.633Z,0.10
2022-08-26T13:30:16.577Z,0.10
2022-08-26T13:33:01.115Z,0.10
2022-08-26T13:35:46.099Z,0.10
2022-08-26T13:38:33.653Z,0.10
2022-08-26T13:41:17.247Z,0.10
2022-08-26T13:44:13.484Z,0.10
2022-08-26T13:46:56.388Z,0.13
2022-08-26T13:49:39.422Z,0.13
2022-08-26T13:52:30.156Z,0.20
2022-08-26T13:55:14.067Z,0.10
2022-08-26T13:57:57.496Z,0.10
2022-08-26T14:00:42.706Z,0.20
2022-08-26T14:03:25.940Z,0.10
2022-08-26T14:06:08.986Z,0.10
2022-08-26T14:08:52.165Z,0.10
2022-08-26T14:11:50.691Z,0.20
2022-08-26T14:14:37.244Z,0.10
2022-08-26T14:17:23.017Z,0.10
2022-08-26T14:20:06.965Z,0.15
2022-08-26T14:23:12.564Z,0.10
2022-08-26T14:25:53.753Z,0.10
2022-08-26T14:28:37.078Z,0.10
2022-08-26T14:31:20.378Z,0.10
2022-08-26T14:34:05.306Z,0.40
2022-08-26T14:36:48.234Z,0.13
2022-08-26T14:39:31.212Z,0.10
2022-08-26T14:42:16.836Z,0.10
2022-08-26T14:45:00.977Z,0.10
2022-08-26T14:47:43.872Z,0.20
2022-08-26T14:50:28.248Z,0.10
2022-08-26T14:53:28.633Z,0.10
2022-08-26T14:56:16.541Z,0.45
2022-08-26T14:58:59.729Z,0.70
2022-08-26T15:01:43.067Z,0.40
2022-08-26T15:04:26.296Z,1.08
2022-08-26T15:07:12.747Z,1.05
2022-08-26T15:09:55.709Z,0.90
2022-08-26T15:12:38.837Z,0.40
2022-08-26T15:15:21.871Z,0.30
2022-08-26T15:18:06.066Z,0.40
2022-08-26T15:20:49.039Z,0.30
2022-08-26T15:23:33.234Z,0.68
2022-08-26T15:26:16.460Z,0.60
2022-08-26T15:29:03.056Z,0.68
2022-08-26T15:31:48.876Z,0.40
2022-08-26T15:34:32.117Z,0.28
2022-08-26T15:37:14.892Z,0.60
2022-08-26T15:39:59.499Z,0.93
2022-08-26T15:42:42.399Z,1.10
2022-08-26T15:45:26.319Z,1.15
2022-08-26T15:48:09.433Z,0.95
2022-08-26T15:50:53.714Z,1.67
2022-08-26T15:53:36.630Z,1.38
2022-08-26T15:56:20.985Z,1.80
2022-08-26T15:59:06.268Z,1.60
2022-08-26T16:01:50.263Z,1.50
2022-08-26T16:04:33.198Z,1.30
2022-08-26T16:07:16.148Z,0.50
2022-08-26T16:09:59.180Z,0.70
2022-08-26T16:12:43.526Z,0.80
2022-08-26T16:15:26.442Z,0.70
2022-08-26T16:18:09.986Z,0.60
2022-08-26T16:21:12.340Z,1.83
2022-08-26T16:23:57.710Z,2.30
2022-08-26T16:26:42.514Z,2.35
2022-08-26T16:29:26.833Z,2.20
2022-08-26T16:32:09.764Z,2.33
2022-08-26T16:34:56.423Z,2.63
2022-08-26T16:37:40.418Z,2.80
2022-08-26T16:40:23.781Z,2.45
2022-08-26T16:43:06.968Z,2.88
2022-08-26T16:45:51.319Z,2.97
2022-08-26T16:48:34.423Z,2.90
2022-08-26T16:51:18.724Z,2.80
2022-08-26T16:54:02.512Z,2.80
2022-08-26T16:56:45.659Z,3.00
2022-08-26T16:59:28.883Z,3.08
2022-08-26T17:02:13.402Z,2.78
2022-08-26T17:04:56.369Z,2.88
2022-08-26T17:07:39.587Z,2.70
2022-08-26T17:10:22.932Z,2.85
2022-08-26T17:13:06.039Z,3.22
2022-08-26T17:15:55.213Z,4.03
2022-08-26T17:18:42.932Z,3.80
2022-08-26T17:21:26.334Z,3.55
2022-08-26T17:24:09.347Z,3.33
2022-08-26T17:26:53.525Z,3.50
2022-08-26T17:29:39.182Z,3.10
2022-08-26T17:32:22.093Z,3.72
2022-08-26T17:35:06.977Z,3.58
2022-08-26T17:37:49.871Z,3.33
2022-08-26T17:40:33.992Z,3.20
2022-08-26T17:43:17.459Z,3.30
2022-08-26T17:46:07.234Z,3.13
2022-08-26T17:48:50.833Z,3.35
2022-08-26T17:51:35.383Z,3.22
2022-08-26T17:54:18.241Z,3.47
2022-08-26T17:57:01.176Z,3.22
2022-08-26T17:59:44.377Z,3.08
2022-08-26T18:05:17.810Z,3.65
2022-08-26T18:08:02.320Z,3.63
2022-08-26T18:10:45.291Z,3.58
2022-08-26T18:13:28.189Z,3.63
2022-08-26T18:16:11.488Z,3.15
2022-08-26T18:18:54.938Z,3.40
2022-08-26T18:21:37.785Z,3.30
2022-08-26T18:24:22.234Z,2.90
2022-08-26T18:27:05.254Z,2.70
2022-08-26T18:29:48.808Z,2.65
2022-08-26T18:32:31.838Z,3.00
2022-08-26T18:35:15.044Z,2.95
2022-08-26T18:38:07.711Z,2.83
2022-08-26T18:40:55.947Z,3.20
2022-08-26T18:43:38.937Z,2.80
2022-08-26T18:46:23.165Z,2.40
2022-08-26T18:49:06.541Z,2.60
2022-08-26T18:51:50.673Z,2.30
2022-08-26T18:54:33.535Z,2.83
2022-08-26T18:57:17.847Z,2.90
2022-08-26T19:00:00.767Z,2.63
2022-08-26T19:02:43.902Z,2.60
2022-08-26T19:05:34.892Z,2.25
2022-08-26T19:08:17.789Z,2.85
2022-08-26T19:11:01.352Z,2.88
2022-08-26T19:13:46.418Z,3.00
2022-08-26T19:16:29.880Z,2.80
2022-08-26T19:19:13.128Z,2.92
2022-08-26T19:21:56.118Z,2.83
2022-08-26T19:24:41.017Z,3.20
2022-08-26T19:27:24.174Z,2.88
2022-08-26T19:30:10.082Z,2.95
2022-08-26T19:32:52.942Z,3.20
2022-08-26T19:35:36.197Z,3.45
2022-08-26T19:38:19.218Z,2.90
2022-08-26T19:41:02.147Z,2.78
2022-08-26T19:43:46.246Z,3.13
2022-08-26T19:46:31.359Z,3.20
2022-08-26T19:49:15.000Z,3.05
2022-08-26T19:51:58.167Z,3.42
2022-08-26T19:54:41.773Z,3.58
2022-08-26T19:57:25.629Z,3.75
2022-08-26T20:00:10.682Z,3.70
2022-08-26T20:02:55.618Z,3.63
2022-08-26T20:05:38.661Z,4.07
2022-08-26T20:08:22.846Z,4.43
2022-08-26T20:11:09.103Z,3.97
2022-08-26T20:13:52.017Z,4.13
2022-08-26T20:16:34.964Z,4.20
2022-08-26T20:19:37.704Z,3.97
2022-08-26T20:22:20.861Z,4.50
2022-08-26T20:25:03.707Z,4.20
2022-08-26T20:27:46.681Z,4.63
2022-08-26T20:30:29.638Z,4.15
2022-08-26T20:33:13.076Z,4.18
2022-08-26T20:35:57.324Z,4.10
2022-08-26T20:38:40.844Z,3.72
2022-08-26T20:41:25.777Z,3.90
2022-08-26T20:44:09.440Z,4.22
2022-08-26T20:46:52.341Z,4.60
2022-08-26T20:49:36.020Z,3.92
2022-08-26T20:52:20.447Z,4.22
2022-08-26T20:55:04.096Z,4.15
2022-08-26T20:57:47.002Z,4.30
2022-08-26T21:00:30.303Z,4.20
2022-08-26T21:03:14.692Z,4.35
2022-08-26T21:05:57.821Z,4.03
2022-08-26T21:08:43.362Z,4.50
2022-08-26T21:11:27.656Z,3.88
2022-08-26T21:14:16.682Z,4.47
2022-08-26T21:17:00.235Z,4.18
2022-08-26T21:19:44.508Z,4.78
2022-08-26T21:22:28.438Z,4.43
2022-08-26T21:25:12.794Z,4.65
2022-08-26T21:27:56.532Z,4.28
2022-08-26T21:30:39.551Z,3.72
2022-08-26T21:33:22.662Z,4.15
2022-08-26T21:36:09.038Z,4.13
2022-08-26T21:38:51.891Z,4.50
2022-08-26T21:41:36.232Z,4.00
2022-08-26T21:44:19.174Z,4.75
2022-08-26T21:47:03.520Z,4.38
2022-08-26T21:49:46.443Z,4.60
2022-08-26T21:52:29.643Z,4.53
2022-08-26T21:55:12.789Z,4.00
2022-08-26T21:57:57.219Z,4.80
2022-08-26T22:00:47.202Z,4.60
2022-08-26T22:03:30.092Z,4.70
2022-08-26T22:06:18.802Z,4.60
2022-08-26T22:09:02.015Z,4.20
2022-08-26T22:11:45.847Z,5.13
2022-08-26T22:14:30.984Z,4.35
2022-08-26T22:17:14.183Z,4.82
2022-08-26T22:19:57.416Z,4.78
2022-08-26T22:22:40.765Z,4.43
2022-08-26T22:25:23.717Z,4.55
2022-08-26T22:28:07.238Z,4.18
2022-08-26T22:30:52.954Z,4.90
2022-08-26T22:33:36.061Z,5.28
2022-08-26T22:36:19.895Z,5.03
2022-08-26T22:39:02.813Z,4.80
2022-08-26T22:41:46.148Z,6.15
2022-08-26T22:44:29.154Z,5.10
2022-08-26T22:47:13.435Z,6.10
2022-08-26T22:49:56.861Z,5.90
2022-08-26T22:52:39.674Z,6.43
2022-08-26T22:55:22.970Z,5.10
2022-08-26T22:58:05.957Z,5.15
2022-08-26T23:00:51.578Z,5.50
2022-08-26T23:03:39.924Z,5.65
2022-08-26T23:06:22.836Z,6.07
2022-08-26T23:09:06.579Z,6.35
2022-08-26T23:11:49.719Z,6.50
2022-08-26T23:14:33.643Z,6.00
2022-08-26T23:17:16.588Z,5.30
2022-08-26T23:20:01.015Z,5.97
2022-08-26T23:22:43.950Z,6.20
2022-08-26T23:25:27.060Z,6.65
2022-08-26T23:28:10.352Z,6.07
2022-08-26T23:30:54.233Z,6.65
2022-08-26T23:33:56.740Z,6.15
2022-08-26T23:36:43.396Z,5.93
2022-08-26T23:39:28.490Z,6.28
2022-08-26T23:42:12.543Z,5.93
2022-08-26T23:44:57.199Z,6.15
2022-08-26T23:47:41.275Z,6.13
2022-08-26T23:50:45.262Z,5.90
2022-08-26T23:53:28.801Z,6.35
2022-08-26T23:56:14.275Z,5.97
2022-08-26T23:58:57.502Z,6.05
